Terminal Aerodrome Forecast
Issued by NWS Memphis, TN

Current Version | Previous Version | Text Only | Print | Product List | Glossary On
Versions: 1 2 3 4 5 6 7 8 9 10 11 12 13 14
000
FTUS44 KMEG 282322
TAFMKL
TAF
KMKL 282322Z 2900/2924 16003KT P6SM FEW250
     FM290800 00000KT 5SM BR FEW250
      TEMPO 2909/2912 2SM BR
     FM291600 17007KT P6SM SCT040=

USA.gov is the U.S. government's official web portal to all federal, state and local government web resources and services.